createdAt,value
2023-05-13T00:00:28.889Z,16.57
2023-05-13T00:02:56.567Z,16.43
2023-05-13T00:05:24.200Z,15.60
2023-05-13T00:07:51.867Z,16.00
2023-05-13T00:10:19.624Z,16.20
2023-05-13T00:12:47.315Z,16.13
2023-05-13T00:15:14.862Z,17.10
2023-05-13T00:17:42.413Z,16.27
2023-05-13T00:20:10.105Z,15.50
2023-05-13T00:22:37.608Z,16.97
2023-05-13T00:25:05.281Z,15.73
2023-05-13T00:27:32.774Z,15.67
2023-05-13T00:30:00.300Z,13.87
2023-05-13T00:32:27.841Z,14.70
2023-05-13T00:34:55.420Z,13.63
2023-05-13T00:37:23.043Z,13.50
2023-05-13T00:39:50.862Z,14.93
2023-05-13T00:42:18.374Z,14.77
2023-05-13T00:44:46.162Z,13.87
2023-05-13T00:47:13.761Z,13.63
2023-05-13T00:49:41.466Z,14.97
2023-05-13T00:52:09.104Z,14.17
2023-05-13T00:54:36.649Z,14.83
2023-05-13T00:57:04.201Z,14.70
2023-05-13T00:59:31.964Z,15.07
2023-05-13T01:02:14.899Z,15.50
2023-05-13T01:04:51.262Z,15.63
2023-05-13T01:07:21.545Z,13.87
2023-05-13T01:09:49.074Z,14.40
2023-05-13T01:12:27.403Z,14.10
2023-05-13T01:14:59.531Z,14.60
2023-05-13T01:17:33.304Z,14.00
2023-05-13T01:20:01.479Z,14.87
2023-05-13T01:22:29.001Z,14.30
2023-05-13T01:24:56.698Z,14.50
2023-05-13T01:27:24.252Z,14.20
2023-05-13T01:29:51.832Z,12.97
2023-05-13T01:32:19.642Z,13.53
2023-05-13T01:34:47.485Z,14.63
2023-05-13T01:37:15.030Z,13.70
2023-05-13T01:39:43.081Z,14.87
2023-05-13T01:42:10.608Z,13.97
2023-05-13T01:44:38.191Z,13.57
2023-05-13T01:47:05.778Z,13.43
2023-05-13T01:49:33.369Z,13.57
2023-05-13T01:52:00.884Z,14.33
2023-05-13T01:54:28.416Z,14.60
2023-05-13T01:56:55.899Z,14.37
2023-05-13T01:59:23.652Z,13.50
2023-05-13T02:01:51.187Z,14.30
2023-05-13T02:04:18.754Z,14.27
2023-05-13T02:06:46.246Z,14.67
2023-05-13T02:09:13.805Z,14.93
2023-05-13T02:11:41.324Z,14.67
2023-05-13T02:14:08.967Z,14.60
2023-05-13T02:16:36.534Z,14.13
2023-05-13T02:19:04.248Z,15.00
2023-05-13T02:21:31.894Z,15.10
2023-05-13T02:23:59.477Z,15.47
2023-05-13T02:26:27.065Z,15.63
2023-05-13T02:28:54.635Z,16.27
2023-05-13T02:31:22.167Z,16.70
2023-05-13T02:33:49.715Z,16.03
2023-05-13T02:36:17.219Z,15.53
2023-05-13T02:38:44.779Z,15.83
2023-05-13T02:41:12.314Z,15.77
2023-05-13T02:43:39.832Z,15.43
2023-05-13T02:46:07.389Z,14.83
2023-05-13T02:48:35.058Z,15.80
2023-05-13T02:51:02.552Z,16.40
2023-05-13T02:53:30.180Z,14.37
2023-05-13T02:55:57.686Z,15.93
2023-05-13T02:58:25.279Z,15.73
2023-05-13T03:00:52.802Z,15.30
2023-05-13T03:03:20.459Z,15.30
2023-05-13T03:05:47.992Z,15.23
2023-05-13T03:08:15.580Z,14.80
2023-05-13T03:10:43.120Z,15.23
2023-05-13T03:13:10.758Z,14.33
2023-05-13T03:15:38.326Z,14.60
2023-05-13T03:18:05.969Z,16.53
2023-05-13T03:20:33.466Z,14.70
2023-05-13T03:23:01.027Z,13.77
2023-05-13T03:25:28.537Z,14.40
2023-05-13T03:27:56.060Z,13.83
2023-05-13T03:30:23.755Z,14.17
2023-05-13T03:32:53.255Z,13.97
2023-05-13T03:35:20.754Z,14.80
2023-05-13T03:37:48.358Z,13.57
2023-05-13T03:40:15.930Z,14.03
2023-05-13T03:42:43.488Z,13.50
2023-05-13T03:45:11.183Z,14.33
2023-05-13T03:47:38.820Z,14.67
2023-05-13T03:50:06.637Z,13.50
2023-05-13T03:52:34.238Z,13.47
2023-05-13T03:55:01.776Z,14.00
2023-05-13T03:57:29.324Z,13.83
2023-05-13T03:59:56.821Z,14.37
2023-05-13T04:02:24.462Z,13.97
2023-05-13T04:04:52.170Z,13.77
2023-05-13T04:07:19.822Z,13.67
2023-05-13T04:09:47.295Z,13.33
2023-05-13T04:12:14.888Z,12.17
2023-05-13T04:14:42.367Z,13.00
2023-05-13T04:17:10.046Z,13.97
2023-05-13T04:19:37.610Z,13.40
2023-05-13T04:22:05.247Z,13.07
2023-05-13T04:24:32.784Z,11.63
2023-05-13T04:27:01.456Z,12.33
2023-05-13T04:29:29.183Z,13.87
2023-05-13T04:31:56.756Z,12.90
2023-05-13T04:34:24.313Z,12.87
2023-05-13T04:36:54.179Z,13.00
2023-05-13T04:39:21.695Z,12.67
2023-05-13T04:41:49.244Z,11.67
2023-05-13T04:44:16.741Z,12.80
2023-05-13T04:46:44.282Z,10.67
2023-05-13T04:49:11.789Z,10.77
2023-05-13T04:51:39.717Z,10.90
2023-05-13T04:54:07.714Z,10.73
2023-05-13T04:56:35.267Z,10.60
2023-05-13T04:59:02.862Z,10.03
2023-05-13T05:01:30.464Z,10.90
2023-05-13T05:03:58.932Z,9.53
2023-05-13T05:06:26.482Z,10.83
2023-05-13T05:08:54.020Z,9.77
2023-05-13T05:11:21.664Z,9.80
2023-05-13T05:13:49.310Z,9.83
2023-05-13T05:16:17.005Z,9.63
2023-05-13T05:18:44.594Z,9.30
2023-05-13T05:21:12.416Z,10.40
2023-05-13T05:23:40.054Z,9.07
2023-05-13T05:26:11.567Z,9.90
2023-05-13T05:28:40.381Z,10.00
2023-05-13T05:31:08.080Z,9.97
2023-05-13T05:33:36.160Z,9.90
2023-05-13T05:36:03.805Z,10.20
2023-05-13T05:38:31.351Z,10.00
2023-05-13T05:40:58.866Z,10.03
2023-05-13T05:43:29.390Z,9.53
2023-05-13T05:45:57.053Z,10.13
2023-05-13T05:48:24.698Z,9.83
2023-05-13T05:50:52.280Z,9.80
2023-05-13T05:53:19.776Z,10.07
2023-05-13T05:55:47.324Z,10.13
2023-05-13T05:58:17.928Z,10.10
2023-05-13T06:00:45.479Z,9.97
2023-05-13T06:03:16.365Z,10.00
2023-05-13T06:05:44.379Z,9.97
2023-05-13T06:08:11.878Z,9.63
2023-05-13T06:10:39.478Z,10.03
2023-05-13T06:13:07.081Z,9.90
2023-05-13T06:15:34.783Z,10.57
2023-05-13T06:18:02.371Z,9.57
2023-05-13T06:20:29.937Z,9.90
2023-05-13T06:22:57.473Z,10.80
2023-05-13T06:25:25.057Z,9.40
2023-05-13T06:27:52.615Z,9.37
2023-05-13T06:30:20.386Z,10.50
2023-05-13T06:32:57.833Z,10.07
2023-05-13T06:35:28.987Z,10.23
2023-05-13T06:37:56.531Z,10.40
2023-05-13T06:40:24.493Z,9.83
2023-05-13T06:42:52.190Z,10.13
2023-05-13T06:45:19.794Z,10.20
2023-05-13T06:47:47.338Z,10.67
2023-05-13T06:50:14.933Z,12.23
2023-05-13T06:52:42.452Z,10.47
2023-05-13T06:55:10.271Z,10.90
2023-05-13T06:57:42.993Z,10.10
2023-05-13T07:00:11.358Z,10.40
2023-05-13T07:02:38.917Z,10.93
2023-05-13T07:05:07.075Z,9.80
2023-05-13T07:07:35.344Z,12.13
2023-05-13T07:10:02.893Z,10.93
2023-05-13T07:12:30.492Z,11.60
2023-05-13T07:14:58.129Z,12.00
2023-05-13T07:17:25.949Z,10.73
2023-05-13T07:19:53.609Z,10.60
2023-05-13T07:22:21.202Z,11.27
2023-05-13T07:24:48.744Z,11.70
2023-05-13T07:27:16.263Z,12.03
2023-05-13T07:29:43.900Z,12.13
2023-05-13T07:32:11.428Z,10.87
2023-05-13T07:34:39.251Z,11.43
2023-05-13T07:37:06.816Z,11.27
2023-05-13T07:39:34.394Z,10.17
2023-05-13T07:42:03.071Z,10.53
2023-05-13T07:44:30.673Z,10.13
2023-05-13T07:46:58.246Z,9.23
2023-05-13T07:49:25.947Z,9.67
2023-05-13T07:51:53.510Z,9.10
2023-05-13T07:54:21.123Z,8.40
2023-05-13T07:56:48.631Z,6.50
2023-05-13T07:59:16.220Z,8.10
2023-05-13T08:01:43.745Z,8.53
2023-05-13T08:04:11.572Z,7.93
2023-05-13T08:06:40.196Z,7.47
2023-05-13T08:09:10.155Z,9.20
2023-05-13T08:11:37.646Z,8.93
2023-05-13T08:14:05.890Z,9.87
2023-05-13T08:16:35.294Z,8.33
2023-05-13T08:19:02.924Z,8.87
2023-05-13T08:21:30.472Z,7.80
2023-05-13T08:23:58.024Z,6.63
2023-05-13T08:26:25.511Z,8.33
2023-05-13T08:28:55.339Z,9.70
2023-05-13T08:31:23.067Z,10.17
2023-05-13T08:33:53.482Z,10.80
2023-05-13T08:36:21.251Z,10.00
2023-05-13T08:38:48.905Z,8.90
2023-05-13T08:41:16.589Z,7.60
2023-05-13T08:43:44.483Z,7.80
2023-05-13T08:46:12.460Z,7.37
2023-05-13T08:48:41.460Z,7.63
2023-05-13T08:51:09.789Z,6.53
2023-05-13T08:53:39.193Z,7.20
2023-05-13T08:56:08.533Z,7.47
2023-05-13T08:58:38.492Z,8.00
2023-05-13T09:01:06.396Z,7.37
2023-05-13T09:03:35.220Z,7.70
2023-05-13T09:06:03.316Z,8.63
2023-05-13T09:08:30.830Z,9.07
2023-05-13T09:10:58.620Z,8.67
2023-05-13T09:13:26.092Z,5.03
2023-05-13T09:15:53.863Z,5.50
2023-05-13T09:18:21.468Z,5.33
2023-05-13T09:20:49.055Z,4.70
2023-05-13T09:23:16.582Z,5.70
2023-05-13T09:25:44.190Z,5.07
2023-05-13T09:28:14.629Z,4.87
2023-05-13T09:30:45.434Z,4.73
2023-05-13T09:33:18.086Z,4.90
2023-05-13T09:35:53.366Z,5.50
2023-05-13T09:38:25.533Z,4.70
2023-05-13T09:40:56.825Z,4.90
2023-05-13T09:43:25.621Z,4.80
2023-05-13T09:45:56.944Z,4.60
2023-05-13T09:48:28.384Z,3.93
2023-05-13T09:50:56.141Z,4.43
2023-05-13T09:53:23.769Z,4.80
2023-05-13T09:55:54.218Z,5.27
2023-05-13T09:58:22.797Z,5.40
2023-05-13T10:00:52.817Z,4.93
2023-05-13T10:03:20.554Z,4.60
2023-05-13T10:05:49.164Z,4.20
2023-05-13T10:08:18.241Z,4.37
2023-05-13T10:10:47.803Z,5.07
2023-05-13T10:13:16.757Z,5.27
2023-05-13T10:15:51.575Z,4.23
2023-05-13T10:18:19.881Z,4.40
2023-05-13T10:20:48.108Z,4.80
2023-05-13T10:23:15.760Z,3.73
2023-05-13T10:25:44.196Z,5.03
2023-05-13T10:28:12.186Z,4.80
2023-05-13T10:30:39.701Z,4.70
2023-05-13T10:33:07.669Z,5.30
2023-05-13T10:35:41.851Z,4.17
2023-05-13T10:38:13.377Z,4.40
2023-05-13T10:40:59.447Z,4.07
2023-05-13T10:43:30.505Z,4.40
2023-05-13T10:45:58.089Z,4.17
2023-05-13T10:48:25.810Z,3.90
2023-05-13T10:50:55.133Z,4.27
2023-05-13T10:53:28.687Z,4.67
2023-05-13T10:55:57.146Z,3.63
2023-05-13T10:58:31.414Z,4.00
2023-05-13T11:01:15.289Z,4.10
2023-05-13T11:03:43.323Z,3.53
2023-05-13T11:06:13.951Z,3.13
2023-05-13T11:08:42.547Z,3.47
2023-05-13T11:11:23.384Z,3.80
2023-05-13T11:13:54.391Z,3.00
2023-05-13T11:16:22.395Z,3.43
2023-05-13T11:18:50.179Z,3.40
2023-05-13T11:21:17.953Z,3.23
2023-05-13T11:23:58.569Z,3.03
2023-05-13T11:26:26.156Z,2.93
2023-05-13T11:29:04.167Z,2.90
2023-05-13T11:31:45.291Z,3.40
2023-05-13T11:34:14.062Z,3.87
2023-05-13T11:36:42.842Z,3.40
2023-05-13T11:39:11.496Z,4.00
2023-05-13T11:41:40.812Z,3.70
2023-05-13T11:44:08.657Z,3.40
2023-05-13T11:46:36.151Z,3.40
2023-05-13T11:49:05.842Z,3.80
2023-05-13T11:51:35.171Z,2.83
2023-05-13T11:54:03.630Z,3.30
2023-05-13T11:56:31.173Z,3.17
2023-05-13T11:59:13.136Z,3.63
2023-05-13T12:01:40.703Z,3.80
2023-05-13T12:04:08.169Z,3.33
2023-05-13T12:06:35.801Z,2.67
2023-05-13T12:09:07.154Z,3.40
2023-05-13T12:11:34.890Z,3.10
2023-05-13T12:14:02.514Z,3.27
2023-05-13T12:16:30.260Z,2.93
2023-05-13T12:19:04.827Z,3.70
2023-05-13T12:21:33.181Z,2.93
2023-05-13T12:24:01.257Z,3.20
2023-05-13T12:26:28.912Z,3.03
2023-05-13T12:28:59.981Z,4.70
2023-05-13T12:31:27.648Z,3.80
2023-05-13T12:33:55.174Z,3.90
2023-05-13T12:36:26.843Z,3.67
2023-05-13T12:39:01.421Z,4.10
2023-05-13T12:41:35.997Z,4.03
2023-05-13T12:44:04.742Z,3.77
2023-05-13T12:46:32.252Z,3.57
2023-05-13T12:49:00.793Z,3.53
2023-05-13T12:51:28.808Z,4.50
2023-05-13T12:53:56.759Z,3.90
2023-05-13T12:56:24.535Z,4.13
2023-05-13T12:58:53.433Z,3.30
2023-05-13T13:01:21.524Z,3.63
2023-05-13T13:03:49.302Z,2.77
2023-05-13T13:06:16.979Z,3.30
2023-05-13T13:08:44.718Z,3.30
2023-05-13T13:11:12.246Z,3.50
2023-05-13T13:13:39.813Z,3.53
2023-05-13T13:16:07.510Z,3.70
2023-05-13T13:18:35.124Z,3.80
2023-05-13T13:21:02.690Z,3.53
2023-05-13T13:23:30.256Z,3.10
2023-05-13T13:25:57.878Z,3.27
2023-05-13T13:28:28.537Z,3.80
2023-05-13T13:30:56.093Z,3.53
2023-05-13T13:33:23.652Z,3.87
2023-05-13T13:35:51.287Z,3.40
2023-05-13T13:38:18.788Z,3.13
2023-05-13T13:40:46.408Z,3.67
2023-05-13T13:43:13.963Z,3.77
2023-05-13T13:45:41.699Z,3.70
2023-05-13T13:48:09.356Z,3.63
2023-05-13T13:50:37.071Z,3.53
2023-05-13T13:53:04.643Z,3.47
2023-05-13T13:55:32.221Z,3.57
2023-05-13T13:57:59.812Z,3.47
2023-05-13T14:00:27.440Z,3.00
2023-05-13T14:02:55.125Z,2.40
2023-05-13T14:05:22.932Z,3.90
2023-05-13T14:07:50.530Z,4.30
2023-05-13T14:10:18.089Z,4.00
2023-05-13T14:12:45.839Z,4.50
2023-05-13T14:15:13.828Z,3.80
2023-05-13T14:17:41.512Z,3.97
2023-05-13T14:20:09.558Z,3.47
2023-05-13T14:22:37.235Z,3.93
2023-05-13T14:25:04.940Z,3.43
2023-05-13T14:27:32.511Z,3.47
2023-05-13T14:30:00.176Z,8.57
2023-05-13T14:32:27.708Z,3.40
2023-05-13T14:34:55.324Z,3.27
2023-05-13T14:37:22.830Z,4.03
2023-05-13T14:39:50.633Z,3.33
2023-05-13T14:42:18.539Z,3.70
2023-05-13T14:44:46.135Z,3.80
2023-05-13T14:47:13.670Z,3.57
2023-05-13T14:49:41.257Z,4.00
2023-05-13T14:52:08.752Z,3.70
2023-05-13T14:54:36.416Z,5.00
2023-05-13T14:57:04.348Z,6.00
2023-05-13T14:59:32.961Z,4.60
2023-05-13T15:02:01.842Z,4.00
2023-05-13T15:04:29.389Z,4.03
2023-05-13T15:06:57.085Z,4.03
2023-05-13T15:09:24.656Z,4.27
2023-05-13T15:11:52.153Z,3.87
2023-05-13T15:14:19.767Z,4.07
2023-05-13T15:16:47.359Z,3.67
2023-05-13T15:19:15.026Z,3.80
2023-05-13T15:21:42.537Z,3.70
2023-05-13T15:24:10.122Z,3.53
2023-05-13T15:26:37.637Z,3.67
2023-05-13T15:29:05.183Z,3.90
2023-05-13T15:31:32.842Z,4.10
2023-05-13T15:34:00.558Z,4.03
2023-05-13T15:36:28.342Z,4.17
2023-05-13T15:38:56.021Z,5.73
2023-05-13T15:41:23.493Z,3.77
2023-05-13T15:43:51.054Z,3.30
2023-05-13T15:46:18.610Z,3.60
2023-05-13T15:48:46.237Z,4.07
2023-05-13T15:51:13.786Z,3.80
2023-05-13T15:53:41.392Z,3.50
2023-05-13T15:56:08.891Z,4.03
2023-05-13T15:58:36.431Z,3.10
2023-05-13T16:01:04.030Z,3.80
2023-05-13T16:03:31.654Z,3.83
2023-05-13T16:05:59.435Z,3.80
2023-05-13T16:08:26.954Z,4.00
2023-05-13T16:10:54.521Z,4.10
2023-05-13T16:13:22.382Z,4.33
2023-05-13T16:15:50.044Z,4.07
2023-05-13T16:18:17.694Z,4.13
2023-05-13T16:20:45.386Z,4.10
2023-05-13T16:23:12.983Z,4.70
2023-05-13T16:25:40.686Z,4.80
2023-05-13T16:28:08.229Z,4.60
2023-05-13T16:30:35.735Z,5.30
2023-05-13T16:33:03.294Z,4.87
2023-05-13T16:35:30.874Z,4.50
2023-05-13T16:37:58.534Z,4.30
2023-05-13T16:40:26.178Z,4.90
2023-05-13T16:42:54.405Z,7.37
2023-05-13T16:45:24.108Z,10.87
2023-05-13T16:47:51.761Z,5.33
2023-05-13T16:50:19.332Z,4.27
2023-05-13T16:52:46.876Z,5.10
2023-05-13T16:55:14.574Z,4.87
2023-05-13T16:57:42.072Z,4.60
2023-05-13T17:00:10.083Z,5.80
2023-05-13T17:02:37.709Z,5.13
2023-05-13T17:05:05.559Z,5.33
2023-05-13T17:07:33.035Z,4.50
2023-05-13T17:10:00.547Z,4.70
2023-05-13T17:12:30.922Z,4.90
2023-05-13T17:14:58.549Z,4.97
2023-05-13T17:17:26.098Z,5.03
2023-05-13T17:19:53.730Z,4.43
2023-05-13T17:22:21.215Z,4.73
2023-05-13T17:24:48.739Z,4.43
2023-05-13T17:27:16.288Z,6.73
2023-05-13T17:29:43.844Z,6.37
2023-05-13T17:32:11.339Z,8.00
2023-05-13T17:34:38.933Z,7.67
2023-05-13T17:37:06.460Z,7.37
2023-05-13T17:39:34.045Z,5.87
2023-05-13T17:42:01.582Z,8.77
2023-05-13T17:44:29.185Z,5.30
2023-05-13T17:46:56.780Z,5.03
2023-05-13T17:49:24.342Z,5.17
2023-05-13T17:51:51.836Z,5.13
2023-05-13T17:54:19.451Z,4.40
2023-05-13T17:56:46.976Z,4.43
2023-05-13T17:59:14.549Z,4.10
2023-05-13T18:01:42.076Z,5.80
2023-05-13T18:04:09.632Z,4.63
2023-05-13T18:06:37.118Z,5.10
2023-05-13T18:09:04.722Z,5.10
2023-05-13T18:11:32.234Z,4.80
2023-05-13T18:13:59.840Z,5.47
2023-05-13T18:16:27.447Z,4.90
2023-05-13T18:18:55.039Z,4.87
2023-05-13T18:21:22.648Z,5.57
2023-05-13T18:23:50.199Z,5.97
2023-05-13T18:26:17.755Z,5.50
2023-05-13T18:28:45.318Z,6.10
2023-05-13T18:31:12.897Z,6.30
2023-05-13T18:33:40.573Z,6.23
2023-05-13T18:36:10.117Z,6.47
2023-05-13T18:38:37.956Z,6.43
2023-05-13T18:41:05.445Z,5.43
2023-05-13T18:43:33.026Z,6.13
2023-05-13T18:46:00.605Z,6.23
2023-05-13T18:48:28.190Z,6.13
2023-05-13T18:50:55.704Z,6.30
2023-05-13T18:53:23.284Z,7.03
2023-05-13T18:55:50.860Z,6.13
2023-05-13T18:58:18.448Z,6.43
2023-05-13T19:00:46.039Z,6.20
2023-05-13T19:03:14.090Z,6.33
2023-05-13T19:05:43.676Z,6.40
2023-05-13T19:08:11.229Z,6.07
2023-05-13T19:10:40.750Z,7.23
2023-05-13T19:13:08.444Z,7.23
2023-05-13T19:15:36.076Z,7.50
2023-05-13T19:18:03.829Z,7.43
2023-05-13T19:20:31.346Z,7.67
2023-05-13T19:22:58.884Z,8.33
2023-05-13T19:25:26.425Z,8.70
2023-05-13T19:27:54.037Z,10.23
2023-05-13T19:30:21.718Z,11.20
2023-05-13T19:32:49.591Z,9.33
2023-05-13T19:35:17.239Z,9.23
2023-05-13T19:37:44.827Z,9.83
2023-05-13T19:40:12.453Z,9.97
2023-05-13T19:42:40.035Z,12.90
2023-05-13T19:45:08.003Z,10.57
2023-05-13T19:47:35.684Z,10.23
2023-05-13T19:50:03.526Z,10.87
2023-05-13T19:52:31.098Z,10.97
2023-05-13T19:54:58.582Z,11.43
2023-05-13T19:57:27.507Z,10.73
2023-05-13T19:59:56.900Z,9.60
2023-05-13T20:02:24.459Z,11.80
2023-05-13T20:04:52.144Z,10.87
2023-05-13T20:07:19.655Z,10.67
2023-05-13T20:09:47.356Z,9.80
2023-05-13T20:12:15.017Z,10.40
2023-05-13T20:14:43.760Z,9.80
2023-05-13T20:17:11.509Z,8.87
2023-05-13T20:19:39.085Z,11.10
2023-05-13T20:22:06.565Z,11.53
2023-05-13T20:24:34.114Z,11.53
2023-05-13T20:27:01.610Z,11.67
2023-05-13T20:29:34.228Z,11.97
2023-05-13T20:32:01.837Z,11.47
2023-05-13T20:34:29.392Z,11.50
2023-05-13T20:36:57.168Z,11.57
2023-05-13T20:39:24.749Z,13.40
2023-05-13T20:41:52.460Z,12.53
2023-05-13T20:44:19.993Z,15.63
2023-05-13T20:46:47.739Z,17.17
2023-05-13T20:49:15.520Z,16.00
2023-05-13T20:51:43.304Z,16.33
2023-05-13T20:54:11.565Z,16.00
2023-05-13T20:56:39.615Z,16.07
2023-05-13T20:59:07.384Z,16.17
2023-05-13T21:01:35.503Z,15.67
2023-05-13T21:04:03.917Z,16.73
2023-05-13T21:06:31.545Z,17.27
2023-05-13T21:08:59.271Z,17.60
2023-05-13T21:11:26.822Z,18.03
2023-05-13T21:13:54.376Z,18.10
2023-05-13T21:16:22.055Z,19.73
2023-05-13T21:18:49.683Z,20.70
2023-05-13T21:21:17.298Z,21.73
2023-05-13T21:23:44.858Z,20.20
2023-05-13T21:26:13.122Z,18.53
2023-05-13T21:28:40.769Z,20.87
2023-05-13T21:31:11.074Z,21.77
2023-05-13T21:33:38.672Z,21.53
2023-05-13T21:36:06.276Z,20.37
2023-05-13T21:38:33.839Z,21.47
2023-05-13T21:41:01.384Z,21.17
2023-05-13T21:43:28.976Z,19.53
2023-05-13T21:45:56.465Z,19.43
2023-05-13T21:48:24.166Z,19.27
2023-05-13T21:50:51.774Z,19.67
2023-05-13T21:53:19.343Z,18.30
2023-05-13T21:55:46.873Z,18.83
2023-05-13T21:58:14.478Z,19.17
2023-05-13T22:00:41.978Z,19.13
2023-05-13T22:03:09.666Z,18.40
2023-05-13T22:05:37.256Z,17.30
2023-05-13T22:08:04.917Z,17.90
2023-05-13T22:10:32.464Z,17.93
2023-05-13T22:13:00.068Z,17.03
2023-05-13T22:15:27.654Z,17.53
2023-05-13T22:17:55.437Z,17.67
2023-05-13T22:20:23.322Z,17.67
2023-05-13T22:22:51.028Z,16.43
2023-05-13T22:25:18.532Z,17.70
2023-05-13T22:27:47.651Z,16.83
2023-05-13T22:30:15.318Z,16.10
2023-05-13T22:32:42.904Z,15.63
2023-05-13T22:35:10.497Z,15.43
2023-05-13T22:37:38.133Z,14.03
2023-05-13T22:40:05.974Z,13.77
2023-05-13T22:42:33.505Z,13.47
2023-05-13T22:45:01.040Z,13.43
2023-05-13T22:47:28.690Z,12.80
2023-05-13T22:49:56.242Z,12.13
2023-05-13T22:52:23.898Z,11.80
2023-05-13T22:54:51.381Z,9.73
2023-05-13T22:57:18.899Z,9.87
2023-05-13T22:59:46.437Z,9.53
2023-05-13T23:02:17.137Z,9.70
2023-05-13T23:04:44.698Z,9.33
2023-05-13T23:07:12.172Z,9.53
2023-05-13T23:09:42.437Z,9.00
2023-05-13T23:12:10.152Z,9.03
2023-05-13T23:14:37.694Z,7.67
2023-05-13T23:17:05.284Z,8.20
2023-05-13T23:19:32.838Z,8.60
2023-05-13T23:22:00.469Z,8.17
2023-05-13T23:24:28.033Z,8.77
2023-05-13T23:26:55.553Z,8.57
2023-05-13T23:29:23.132Z,8.30
2023-05-13T23:31:50.653Z,8.80
2023-05-13T23:34:18.215Z,8.47
2023-05-13T23:36:45.733Z,9.20
2023-05-13T23:39:13.239Z,8.77
2023-05-13T23:41:40.763Z,8.70
2023-05-13T23:44:08.384Z,9.47
2023-05-13T23:46:35.921Z,8.73
2023-05-13T23:49:03.502Z,9.20
2023-05-13T23:51:31.067Z,9.13
2023-05-13T23:53:58.642Z,9.83
2023-05-13T23:56:26.124Z,10.57
2023-05-13T23:58:53.681Z,10.20
